sensor_id;sensor_type;location;lat;lon;timestamp;temperature;humidity
35541;DHT22;21650;48.840;9.162;2023-05-27T00:00:05;16.00;91.60
35541;DHT22;21650;48.840;9.162;2023-05-27T00:02:32;16.00;92.00
35541;DHT22;21650;48.840;9.162;2023-05-27T00:04:57;16.00;91.70
35541;DHT22;21650;48.840;9.162;2023-05-27T00:07:23;15.90;92.00
35541;DHT22;21650;48.840;9.162;2023-05-27T00:09:48;16.00;91.90
35541;DHT22;21650;48.840;9.162;2023-05-27T00:12:14;15.90;91.90
35541;DHT22;21650;48.840;9.162;2023-05-27T00:14:40;15.90;91.50
35541;DHT22;21650;48.840;9.162;2023-05-27T00:17:06;15.90;91.60
35541;DHT22;21650;48.840;9.162;2023-05-27T00:19:34;15.90;91.70
35541;DHT22;21650;48.840;9.162;2023-05-27T00:22:00;15.80;91.30
35541;DHT22;21650;48.840;9.162;2023-05-27T00:24:25;15.60;92.20
35541;DHT22;21650;48.840;9.162;2023-05-27T00:26:51;15.70;91.60
35541;DHT22;21650;48.840;9.162;2023-05-27T00:29:17;15.60;91.80
35541;DHT22;21650;48.840;9.162;2023-05-27T00:31:42;15.60;91.70
35541;DHT22;21650;48.840;9.162;2023-05-27T00:34:08;15.60;91.40
35541;DHT22;21650;48.840;9.162;2023-05-27T00:36:34;15.70;92.00
35541;DHT22;21650;48.840;9.162;2023-05-27T00:39:00;15.60;91.80
35541;DHT22;21650;48.840;9.162;2023-05-27T00:41:26;15.70;91.70
35541;DHT22;21650;48.840;9.162;2023-05-27T00:43:53;15.60;91.80
35541;DHT22;21650;48.840;9.162;2023-05-27T00:46:19;15.70;92.30
35541;DHT22;21650;48.840;9.162;2023-05-27T00:48:47;15.50;92.00
35541;DHT22;21650;48.840;9.162;2023-05-27T00:51:13;15.50;92.10
35541;DHT22;21650;48.840;9.162;2023-05-27T00:53:43;15.60;92.30
35541;DHT22;21650;48.840;9.162;2023-05-27T00:56:10;15.60;92.30
35541;DHT22;21650;48.840;9.162;2023-05-27T00:58:36;15.60;92.10
35541;DHT22;21650;48.840;9.162;2023-05-27T01:01:04;15.40;92.20
35541;DHT22;21650;48.840;9.162;2023-05-27T01:03:31;15.40;92.90
35541;DHT22;21650;48.840;9.162;2023-05-27T01:08:47;15.30;93.00
35541;DHT22;21650;48.840;9.162;2023-05-27T01:11:20;15.40;93.20
35541;DHT22;21650;48.840;9.162;2023-05-27T01:13:50;15.40;93.80
35541;DHT22;21650;48.840;9.162;2023-05-27T01:16:18;15.40;93.50
35541;DHT22;21650;48.840;9.162;2023-05-27T01:18:48;15.40;94.30
35541;DHT22;21650;48.840;9.162;2023-05-27T01:21:17;15.20;94.30
35541;DHT22;21650;48.840;9.162;2023-05-27T01:23:47;15.20;94.50
35541;DHT22;21650;48.840;9.162;2023-05-27T01:26:12;15.30;94.50
35541;DHT22;21650;48.840;9.162;2023-05-27T01:28:38;15.10;94.00
35541;DHT22;21650;48.840;9.162;2023-05-27T01:31:27;15.10;94.70
35541;DHT22;21650;48.840;9.162;2023-05-27T01:34:01;15.10;94.90
35541;DHT22;21650;48.840;9.162;2023-05-27T01:36:29;15.10;94.80
35541;DHT22;21650;48.840;9.162;2023-05-27T01:38:56;15.00;94.70
35541;DHT22;21650;48.840;9.162;2023-05-27T01:41:24;15.10;94.90
35541;DHT22;21650;48.840;9.162;2023-05-27T01:43:51;15.00;94.90
35541;DHT22;21650;48.840;9.162;2023-05-27T01:46:17;15.00;95.60
35541;DHT22;21650;48.840;9.162;2023-05-27T01:48:43;14.80;95.80
35541;DHT22;21650;48.840;9.162;2023-05-27T01:51:08;14.80;96.20
35541;DHT22;21650;48.840;9.162;2023-05-27T01:53:34;14.70;95.70
35541;DHT22;21650;48.840;9.162;2023-05-27T01:56:03;14.60;96.60
35541;DHT22;21650;48.840;9.162;2023-05-27T01:58:28;14.50;96.00
35541;DHT22;21650;48.840;9.162;2023-05-27T02:00:54;14.40;96.00
35541;DHT22;21650;48.840;9.162;2023-05-27T02:03:20;14.40;96.20
35541;DHT22;21650;48.840;9.162;2023-05-27T02:05:45;14.50;96.40
35541;DHT22;21650;48.840;9.162;2023-05-27T02:08:11;14.50;96.00
35541;DHT22;21650;48.840;9.162;2023-05-27T02:10:36;14.40;95.50
35541;DHT22;21650;48.840;9.162;2023-05-27T02:13:02;14.40;96.10
35541;DHT22;21650;48.840;9.162;2023-05-27T02:15:28;14.40;96.30
35541;DHT22;21650;48.840;9.162;2023-05-27T02:17:53;14.40;95.70
35541;DHT22;21650;48.840;9.162;2023-05-27T02:20:23;14.30;95.50
35541;DHT22;21650;48.840;9.162;2023-05-27T02:22:52;14.40;96.40
35541;DHT22;21650;48.840;9.162;2023-05-27T02:25:18;14.40;96.70
35541;DHT22;21650;48.840;9.162;2023-05-27T02:27:43;14.30;96.50
35541;DHT22;21650;48.840;9.162;2023-05-27T02:30:14;14.40;97.00
35541;DHT22;21650;48.840;9.162;2023-05-27T02:32:40;14.30;97.20
35541;DHT22;21650;48.840;9.162;2023-05-27T02:35:06;14.30;97.30
35541;DHT22;21650;48.840;9.162;2023-05-27T02:37:32;14.20;97.20
35541;DHT22;21650;48.840;9.162;2023-05-27T02:39:58;14.20;96.70
35541;DHT22;21650;48.840;9.162;2023-05-27T02:42:24;14.20;97.20
35541;DHT22;21650;48.840;9.162;2023-05-27T02:44:49;14.10;97.00
35541;DHT22;21650;48.840;9.162;2023-05-27T02:47:15;14.10;97.30
35541;DHT22;21650;48.840;9.162;2023-05-27T02:49:40;14.10;97.50
35541;DHT22;21650;48.840;9.162;2023-05-27T02:52:06;14.10;97.10
35541;DHT22;21650;48.840;9.162;2023-05-27T02:54:32;14.00;96.80
35541;DHT22;21650;48.840;9.162;2023-05-27T02:56:57;14.10;97.70
35541;DHT22;21650;48.840;9.162;2023-05-27T02:59:23;14.10;97.80
35541;DHT22;21650;48.840;9.162;2023-05-27T03:01:48;14.00;97.50
35541;DHT22;21650;48.840;9.162;2023-05-27T03:04:14;14.00;97.40
35541;DHT22;21650;48.840;9.162;2023-05-27T03:06:41;14.10;97.70
35541;DHT22;21650;48.840;9.162;2023-05-27T03:09:07;13.80;97.30
35541;DHT22;21650;48.840;9.162;2023-05-27T03:11:33;13.90;98.50
35541;DHT22;21650;48.840;9.162;2023-05-27T03:13:58;13.80;97.90
35541;DHT22;21650;48.840;9.162;2023-05-27T03:16:24;13.90;98.40
35541;DHT22;21650;48.840;9.162;2023-05-27T03:18:50;13.90;97.90
35541;DHT22;21650;48.840;9.162;2023-05-27T03:21:16;13.80;97.40
35541;DHT22;21650;48.840;9.162;2023-05-27T03:23:41;13.80;98.10
35541;DHT22;21650;48.840;9.162;2023-05-27T03:26:07;13.90;97.80
35541;DHT22;21650;48.840;9.162;2023-05-27T03:28:32;13.80;97.80
35541;DHT22;21650;48.840;9.162;2023-05-27T03:30:58;13.70;97.70
35541;DHT22;21650;48.840;9.162;2023-05-27T03:33:24;13.80;98.60
35541;DHT22;21650;48.840;9.162;2023-05-27T03:35:50;13.60;98.10
35541;DHT22;21650;48.840;9.162;2023-05-27T03:38:16;13.70;98.50
35541;DHT22;21650;48.840;9.162;2023-05-27T03:40:41;13.70;98.40
35541;DHT22;21650;48.840;9.162;2023-05-27T03:43:07;13.70;98.50
35541;DHT22;21650;48.840;9.162;2023-05-27T03:45:32;13.40;98.40
35541;DHT22;21650;48.840;9.162;2023-05-27T03:47:58;13.40;98.90
35541;DHT22;21650;48.840;9.162;2023-05-27T03:50:24;13.50;98.70
35541;DHT22;21650;48.840;9.162;2023-05-27T03:52:49;13.30;98.80
35541;DHT22;21650;48.840;9.162;2023-05-27T03:55:15;13.40;98.80
35541;DHT22;21650;48.840;9.162;2023-05-27T03:57:42;13.40;98.90
35541;DHT22;21650;48.840;9.162;2023-05-27T04:00:08;13.50;98.90
35541;DHT22;21650;48.840;9.162;2023-05-27T04:02:36;13.50;99.00
35541;DHT22;21650;48.840;9.162;2023-05-27T04:05:02;13.40;99.10
35541;DHT22;21650;48.840;9.162;2023-05-27T04:07:28;13.20;99.00
35541;DHT22;21650;48.840;9.162;2023-05-27T04:09:55;13.10;99.40
35541;DHT22;21650;48.840;9.162;2023-05-27T04:12:20;13.10;99.70
35541;DHT22;21650;48.840;9.162;2023-05-27T04:14:46;13.00;99.70
35541;DHT22;21650;48.840;9.162;2023-05-27T04:17:11;13.10;99.90
35541;DHT22;21650;48.840;9.162;2023-05-27T04:19:38;13.10;99.80
35541;DHT22;21650;48.840;9.162;2023-05-27T04:22:04;13.20;99.90
35541;DHT22;21650;48.840;9.162;2023-05-27T04:24:30;13.20;99.80
35541;DHT22;21650;48.840;9.162;2023-05-27T04:26:56;13.10;99.90
35541;DHT22;21650;48.840;9.162;2023-05-27T04:29:21;13.20;99.90
35541;DHT22;21650;48.840;9.162;2023-05-27T04:31:48;13.50;99.90
35541;DHT22;21650;48.840;9.162;2023-05-27T04:34:13;13.60;99.90
35541;DHT22;21650;48.840;9.162;2023-05-27T04:36:39;13.60;99.90
35541;DHT22;21650;48.840;9.162;2023-05-27T04:39:04;13.50;99.70
35541;DHT22;21650;48.840;9.162;2023-05-27T04:41:31;13.70;99.40
35541;DHT22;21650;48.840;9.162;2023-05-27T04:43:58;13.50;99.50
35541;DHT22;21650;48.840;9.162;2023-05-27T04:46:26;13.60;99.70
35541;DHT22;21650;48.840;9.162;2023-05-27T04:48:53;13.70;99.90
35541;DHT22;21650;48.840;9.162;2023-05-27T04:51:19;13.90;99.90
35541;DHT22;21650;48.840;9.162;2023-05-27T04:53:45;14.10;99.20
35541;DHT22;21650;48.840;9.162;2023-05-27T04:56:13;14.10;99.30
35541;DHT22;21650;48.840;9.162;2023-05-27T04:58:40;14.20;99.20
35541;DHT22;21650;48.840;9.162;2023-05-27T05:01:09;14.30;99.10
35541;DHT22;21650;48.840;9.162;2023-05-27T05:03:45;14.30;99.10
35541;DHT22;21650;48.840;9.162;2023-05-27T05:06:29;14.40;98.80
35541;DHT22;21650;48.840;9.162;2023-05-27T05:08:55;14.40;98.70
35541;DHT22;21650;48.840;9.162;2023-05-27T05:11:20;14.60;98.30
35541;DHT22;21650;48.840;9.162;2023-05-27T05:13:46;14.90;97.20
35541;DHT22;21650;48.840;9.162;2023-05-27T05:16:12;15.10;96.90
35541;DHT22;21650;48.840;9.162;2023-05-27T05:18:37;15.30;96.80
35541;DHT22;21650;48.840;9.162;2023-05-27T05:21:03;15.50;96.70
35541;DHT22;21650;48.840;9.162;2023-05-27T05:23:30;15.50;96.70
35541;DHT22;21650;48.840;9.162;2023-05-27T05:25:55;15.40;96.20
35541;DHT22;21650;48.840;9.162;2023-05-27T05:28:24;15.50;96.50
35541;DHT22;21650;48.840;9.162;2023-05-27T05:30:49;15.60;96.80
35541;DHT22;21650;48.840;9.162;2023-05-27T05:33:15;15.70;96.50
35541;DHT22;21650;48.840;9.162;2023-05-27T05:35:41;15.60;96.50
35541;DHT22;21650;48.840;9.162;2023-05-27T05:38:06;15.80;96.70
35541;DHT22;21650;48.840;9.162;2023-05-27T05:40:32;15.70;96.40
35541;DHT22;21650;48.840;9.162;2023-05-27T05:42:58;15.70;96.50
35541;DHT22;21650;48.840;9.162;2023-05-27T05:45:23;15.80;95.80
35541;DHT22;21650;48.840;9.162;2023-05-27T05:47:49;15.80;96.00
35541;DHT22;21650;48.840;9.162;2023-05-27T05:50:15;15.60;95.80
35541;DHT22;21650;48.840;9.162;2023-05-27T05:52:40;15.40;96.50
35541;DHT22;21650;48.840;9.162;2023-05-27T05:55:06;15.50;96.20
35541;DHT22;21650;48.840;9.162;2023-05-27T05:57:32;15.50;95.50
35541;DHT22;21650;48.840;9.162;2023-05-27T05:59:58;15.40;96.00
35541;DHT22;21650;48.840;9.162;2023-05-27T06:02:23;15.50;96.20
35541;DHT22;21650;48.840;9.162;2023-05-27T06:04:50;15.60;96.00
35541;DHT22;21650;48.840;9.162;2023-05-27T06:07:16;15.80;95.80
35541;DHT22;21650;48.840;9.162;2023-05-27T06:09:42;15.90;95.70
35541;DHT22;21650;48.840;9.162;2023-05-27T06:12:07;15.80;95.70
35541;DHT22;21650;48.840;9.162;2023-05-27T06:14:33;15.50;95.60
35541;DHT22;21650;48.840;9.162;2023-05-27T06:16:59;15.40;96.00
35541;DHT22;21650;48.840;9.162;2023-05-27T06:19:24;15.40;96.60
35541;DHT22;21650;48.840;9.162;2023-05-27T06:21:50;15.60;96.30
35541;DHT22;21650;48.840;9.162;2023-05-27T06:24:16;15.70;96.10
35541;DHT22;21650;48.840;9.162;2023-05-27T06:26:42;15.40;96.10
35541;DHT22;21650;48.840;9.162;2023-05-27T06:29:07;15.60;96.10
35541;DHT22;21650;48.840;9.162;2023-05-27T06:31:33;15.60;96.40
35541;DHT22;21650;48.840;9.162;2023-05-27T06:33:59;15.60;96.20
35541;DHT22;21650;48.840;9.162;2023-05-27T06:36:24;15.70;96.20
35541;DHT22;21650;48.840;9.162;2023-05-27T06:38:50;15.90;96.70
35541;DHT22;21650;48.840;9.162;2023-05-27T06:41:16;15.80;96.00
35541;DHT22;21650;48.840;9.162;2023-05-27T06:43:42;15.70;96.30
35541;DHT22;21650;48.840;9.162;2023-05-27T06:46:07;15.90;96.70
35541;DHT22;21650;48.840;9.162;2023-05-27T06:48:33;16.10;96.50
35541;DHT22;21650;48.840;9.162;2023-05-27T06:50:59;16.10;96.20
35541;DHT22;21650;48.840;9.162;2023-05-27T06:53:25;16.40;96.10
35541;DHT22;21650;48.840;9.162;2023-05-27T06:55:50;16.10;94.70
35541;DHT22;21650;48.840;9.162;2023-05-27T06:58:16;16.20;95.40
35541;DHT22;21650;48.840;9.162;2023-05-27T07:00:41;16.20;95.70
35541;DHT22;21650;48.840;9.162;2023-05-27T07:03:07;16.40;96.40
35541;DHT22;21650;48.840;9.162;2023-05-27T07:05:32;16.60;96.10
35541;DHT22;21650;48.840;9.162;2023-05-27T07:07:58;16.60;95.50
35541;DHT22;21650;48.840;9.162;2023-05-27T07:10:23;16.70;96.20
35541;DHT22;21650;48.840;9.162;2023-05-27T07:12:49;16.60;95.30
35541;DHT22;21650;48.840;9.162;2023-05-27T07:15:15;16.70;95.20
35541;DHT22;21650;48.840;9.162;2023-05-27T07:17:40;16.70;94.40
35541;DHT22;21650;48.840;9.162;2023-05-27T07:20:06;16.90;95.00
35541;DHT22;21650;48.840;9.162;2023-05-27T07:22:32;16.90;95.10
35541;DHT22;21650;48.840;9.162;2023-05-27T07:24:57;17.20;95.40
35541;DHT22;21650;48.840;9.162;2023-05-27T07:27:23;16.80;94.00
35541;DHT22;21650;48.840;9.162;2023-05-27T07:29:49;16.80;94.40
35541;DHT22;21650;48.840;9.162;2023-05-27T07:32:14;16.90;94.50
35541;DHT22;21650;48.840;9.162;2023-05-27T07:34:40;17.20;94.90
35541;DHT22;21650;48.840;9.162;2023-05-27T07:37:05;17.10;94.40
35541;DHT22;21650;48.840;9.162;2023-05-27T07:39:31;17.20;94.90
35541;DHT22;21650;48.840;9.162;2023-05-27T07:41:56;17.20;94.90
35541;DHT22;21650;48.840;9.162;2023-05-27T07:44:22;17.30;94.80
35541;DHT22;21650;48.840;9.162;2023-05-27T07:46:48;17.30;95.10
35541;DHT22;21650;48.840;9.162;2023-05-27T07:49:13;17.50;94.00
35541;DHT22;21650;48.840;9.162;2023-05-27T07:51:40;17.60;94.70
35541;DHT22;21650;48.840;9.162;2023-05-27T07:54:05;17.40;94.00
35541;DHT22;21650;48.840;9.162;2023-05-27T07:56:31;17.50;93.90
35541;DHT22;21650;48.840;9.162;2023-05-27T07:58:57;17.60;94.00
35541;DHT22;21650;48.840;9.162;2023-05-27T08:01:22;17.70;94.50
35541;DHT22;21650;48.840;9.162;2023-05-27T08:03:50;17.90;94.60
35541;DHT22;21650;48.840;9.162;2023-05-27T08:06:17;17.60;93.30
35541;DHT22;21650;48.840;9.162;2023-05-27T08:08:43;17.70;93.70
35541;DHT22;21650;48.840;9.162;2023-05-27T08:11:09;17.90;94.10
35541;DHT22;21650;48.840;9.162;2023-05-27T08:13:35;18.20;93.70
35541;DHT22;21650;48.840;9.162;2023-05-27T08:16:00;18.10;93.60
35541;DHT22;21650;48.840;9.162;2023-05-27T08:18:26;18.30;93.40
35541;DHT22;21650;48.840;9.162;2023-05-27T08:20:51;18.50;92.50
35541;DHT22;21650;48.840;9.162;2023-05-27T08:23:18;18.90;93.30
35541;DHT22;21650;48.840;9.162;2023-05-27T08:25:43;19.30;93.20
35541;DHT22;21650;48.840;9.162;2023-05-27T08:28:09;19.70;93.20
35541;DHT22;21650;48.840;9.162;2023-05-27T08:30:35;19.90;91.80
35541;DHT22;21650;48.840;9.162;2023-05-27T08:33:00;20.10;92.40
35541;DHT22;21650;48.840;9.162;2023-05-27T08:35:26;20.60;92.80
35541;DHT22;21650;48.840;9.162;2023-05-27T08:37:52;20.20;90.30
35541;DHT22;21650;48.840;9.162;2023-05-27T08:40:18;20.40;91.80
35541;DHT22;21650;48.840;9.162;2023-05-27T08:42:46;20.40;92.00
35541;DHT22;21650;48.840;9.162;2023-05-27T08:45:13;20.70;91.40
35541;DHT22;21650;48.840;9.162;2023-05-27T08:47:39;20.40;90.00
35541;DHT22;21650;48.840;9.162;2023-05-27T08:50:06;20.20;91.20
35541;DHT22;21650;48.840;9.162;2023-05-27T08:52:33;20.30;91.50
35541;DHT22;21650;48.840;9.162;2023-05-27T08:54:59;20.20;91.60
35541;DHT22;21650;48.840;9.162;2023-05-27T08:57:29;20.50;91.30
35541;DHT22;21650;48.840;9.162;2023-05-27T08:59:55;20.80;90.50
35541;DHT22;21650;48.840;9.162;2023-05-27T09:02:22;21.50;91.50
35541;DHT22;21650;48.840;9.162;2023-05-27T09:04:48;21.60;90.20
35541;DHT22;21650;48.840;9.162;2023-05-27T09:07:14;21.30;90.10
35541;DHT22;21650;48.840;9.162;2023-05-27T09:09:40;21.50;87.70
35541;DHT22;21650;48.840;9.162;2023-05-27T09:12:06;21.20;90.20
35541;DHT22;21650;48.840;9.162;2023-05-27T09:14:34;21.40;90.10
35541;DHT22;21650;48.840;9.162;2023-05-27T09:17:07;21.60;90.30
35541;DHT22;21650;48.840;9.162;2023-05-27T09:19:34;21.40;89.00
35541;DHT22;21650;48.840;9.162;2023-05-27T09:22:00;22.20;90.20
35541;DHT22;21650;48.840;9.162;2023-05-27T09:24:26;22.10;90.30
35541;DHT22;21650;48.840;9.162;2023-05-27T09:26:53;22.10;87.30
35541;DHT22;21650;48.840;9.162;2023-05-27T09:29:19;21.70;87.90
35541;DHT22;21650;48.840;9.162;2023-05-27T09:31:45;22.20;90.80
35541;DHT22;21650;48.840;9.162;2023-05-27T09:34:13;22.30;87.40
35541;DHT22;21650;48.840;9.162;2023-05-27T09:36:47;21.70;86.70
35541;DHT22;21650;48.840;9.162;2023-05-27T09:39:14;22.10;89.60
35541;DHT22;21650;48.840;9.162;2023-05-27T09:41:40;22.00;89.80
35541;DHT22;21650;48.840;9.162;2023-05-27T09:44:06;22.20;87.70
35541;DHT22;21650;48.840;9.162;2023-05-27T09:46:33;22.50;89.50
35541;DHT22;21650;48.840;9.162;2023-05-27T09:48:59;22.40;89.00
35541;DHT22;21650;48.840;9.162;2023-05-27T09:51:28;22.50;88.30
35541;DHT22;21650;48.840;9.162;2023-05-27T09:53:55;22.90;90.10
35541;DHT22;21650;48.840;9.162;2023-05-27T09:56:26;22.80;86.60
35541;DHT22;21650;48.840;9.162;2023-05-27T09:58:55;22.40;87.00
35541;DHT22;21650;48.840;9.162;2023-05-27T10:01:25;22.40;86.50
35541;DHT22;21650;48.840;9.162;2023-05-27T10:03:51;22.80;89.10
35541;DHT22;21650;48.840;9.162;2023-05-27T10:06:17;22.60;86.40
35541;DHT22;21650;48.840;9.162;2023-05-27T10:08:44;22.80;87.70
35541;DHT22;21650;48.840;9.162;2023-05-27T10:11:11;22.70;88.30
35541;DHT22;21650;48.840;9.162;2023-05-27T10:13:37;22.70;86.60
35541;DHT22;21650;48.840;9.162;2023-05-27T10:16:03;22.70;85.00
35541;DHT22;21650;48.840;9.162;2023-05-27T10:18:30;22.70;89.50
35541;DHT22;21650;48.840;9.162;2023-05-27T10:20:59;22.50;87.80
35541;DHT22;21650;48.840;9.162;2023-05-27T10:25:53;22.60;90.00
35541;DHT22;21650;48.840;9.162;2023-05-27T10:28:31;22.80;87.70
35541;DHT22;21650;48.840;9.162;2023-05-27T10:31:09;23.20;87.20
35541;DHT22;21650;48.840;9.162;2023-05-27T10:33:39;23.40;87.50
35541;DHT22;21650;48.840;9.162;2023-05-27T10:36:17;23.70;85.00
35541;DHT22;21650;48.840;9.162;2023-05-27T10:39:03;23.70;84.40
35541;DHT22;21650;48.840;9.162;2023-05-27T10:41:52;23.40;85.10
35541;DHT22;21650;48.840;9.162;2023-05-27T10:44:32;23.80;86.20
35541;DHT22;21650;48.840;9.162;2023-05-27T10:47:00;23.90;82.70
35541;DHT22;21650;48.840;9.162;2023-05-27T10:49:27;23.70;85.60
35541;DHT22;21650;48.840;9.162;2023-05-27T10:52:11;23.50;82.40
35541;DHT22;21650;48.840;9.162;2023-05-27T10:54:39;23.50;82.70
35541;DHT22;21650;48.840;9.162;2023-05-27T10:57:06;24.10;84.90
35541;DHT22;21650;48.840;9.162;2023-05-27T10:59:47;24.00;81.60
35541;DHT22;21650;48.840;9.162;2023-05-27T11:02:13;23.50;80.70
35541;DHT22;21650;48.840;9.162;2023-05-27T11:04:39;23.80;81.70
35541;DHT22;21650;48.840;9.162;2023-05-27T11:07:05;23.90;80.60
35541;DHT22;21650;48.840;9.162;2023-05-27T11:09:49;24.00;78.50
35541;DHT22;21650;48.840;9.162;2023-05-27T11:12:16;23.80;79.30
35541;DHT22;21650;48.840;9.162;2023-05-27T11:14:47;23.90;81.00
35541;DHT22;21650;48.840;9.162;2023-05-27T11:17:13;24.00;77.30
35541;DHT22;21650;48.840;9.162;2023-05-27T11:19:40;24.10;80.50
35541;DHT22;21650;48.840;9.162;2023-05-27T11:22:08;24.20;77.90
35541;DHT22;21650;48.840;9.162;2023-05-27T11:24:35;24.30;79.70
35541;DHT22;21650;48.840;9.162;2023-05-27T11:27:11;24.60;78.00
35541;DHT22;21650;48.840;9.162;2023-05-27T11:29:37;24.50;78.50
35541;DHT22;21650;48.840;9.162;2023-05-27T11:32:06;24.50;77.30
35541;DHT22;21650;48.840;9.162;2023-05-27T11:34:35;24.70;78.10
35541;DHT22;21650;48.840;9.162;2023-05-27T11:37:02;24.30;77.50
35541;DHT22;21650;48.840;9.162;2023-05-27T11:39:31;24.60;80.00
35541;DHT22;21650;48.840;9.162;2023-05-27T11:41:57;24.10;76.50
35541;DHT22;21650;48.840;9.162;2023-05-27T11:44:25;24.10;77.80
35541;DHT22;21650;48.840;9.162;2023-05-27T11:46:52;24.30;77.20
35541;DHT22;21650;48.840;9.162;2023-05-27T11:49:23;24.50;78.40
35541;DHT22;21650;48.840;9.162;2023-05-27T11:51:54;24.60;76.10
35541;DHT22;21650;48.840;9.162;2023-05-27T11:54:28;24.40;76.60
35541;DHT22;21650;48.840;9.162;2023-05-27T11:56:55;24.40;76.00
35541;DHT22;21650;48.840;9.162;2023-05-27T11:59:23;24.80;77.40
35541;DHT22;21650;48.840;9.162;2023-05-27T12:01:49;24.60;77.60
35541;DHT22;21650;48.840;9.162;2023-05-27T12:04:15;24.70;77.00
35541;DHT22;21650;48.840;9.162;2023-05-27T12:06:44;24.90;77.20
35541;DHT22;21650;48.840;9.162;2023-05-27T12:09:11;25.30;74.90
35541;DHT22;21650;48.840;9.162;2023-05-27T12:11:37;25.20;75.70
35541;DHT22;21650;48.840;9.162;2023-05-27T12:14:04;24.90;74.90
35541;DHT22;21650;48.840;9.162;2023-05-27T12:16:30;24.70;75.40
35541;DHT22;21650;48.840;9.162;2023-05-27T12:18:55;24.70;75.40
35541;DHT22;21650;48.840;9.162;2023-05-27T12:21:21;24.60;75.30
35541;DHT22;21650;48.840;9.162;2023-05-27T12:23:47;24.40;76.70
35541;DHT22;21650;48.840;9.162;2023-05-27T12:26:14;24.10;75.40
35541;DHT22;21650;48.840;9.162;2023-05-27T12:28:40;24.20;75.60
35541;DHT22;21650;48.840;9.162;2023-05-27T12:31:06;24.40;75.30
35541;DHT22;21650;48.840;9.162;2023-05-27T12:33:32;24.50;74.10
35541;DHT22;21650;48.840;9.162;2023-05-27T12:35:58;24.80;75.70
35541;DHT22;21650;48.840;9.162;2023-05-27T12:38:23;24.70;73.50
35541;DHT22;21650;48.840;9.162;2023-05-27T12:40:49;24.80;74.00
35541;DHT22;21650;48.840;9.162;2023-05-27T12:43:16;24.90;76.30
35541;DHT22;21650;48.840;9.162;2023-05-27T12:45:42;24.90;72.50
35541;DHT22;21650;48.840;9.162;2023-05-27T12:48:07;25.00;73.40
35541;DHT22;21650;48.840;9.162;2023-05-27T12:50:33;24.90;72.50
35541;DHT22;21650;48.840;9.162;2023-05-27T12:52:58;25.10;74.60
35541;DHT22;21650;48.840;9.162;2023-05-27T12:55:25;25.10;73.80
35541;DHT22;21650;48.840;9.162;2023-05-27T12:57:51;24.80;74.20
35541;DHT22;21650;48.840;9.162;2023-05-27T13:00:18;24.80;72.80
35541;DHT22;21650;48.840;9.162;2023-05-27T13:02:45;25.00;73.70
35541;DHT22;21650;48.840;9.162;2023-05-27T13:05:12;25.40;71.30
35541;DHT22;21650;48.840;9.162;2023-05-27T13:07:39;25.60;72.30
35541;DHT22;21650;48.840;9.162;2023-05-27T13:10:06;25.00;70.70
35541;DHT22;21650;48.840;9.162;2023-05-27T13:12:33;24.90;71.90
35541;DHT22;21650;48.840;9.162;2023-05-27T13:15:00;25.40;73.20
35541;DHT22;21650;48.840;9.162;2023-05-27T13:17:27;25.80;72.90
35541;DHT22;21650;48.840;9.162;2023-05-27T13:19:53;25.70;72.00
35541;DHT22;21650;48.840;9.162;2023-05-27T13:22:18;25.70;71.80
35541;DHT22;21650;48.840;9.162;2023-05-27T13:24:44;25.30;70.70
35541;DHT22;21650;48.840;9.162;2023-05-27T13:27:10;25.40;71.10
35541;DHT22;21650;48.840;9.162;2023-05-27T13:29:36;25.30;69.90
35541;DHT22;21650;48.840;9.162;2023-05-27T13:32:02;25.10;69.90
35541;DHT22;21650;48.840;9.162;2023-05-27T13:34:29;25.50;70.90
35541;DHT22;21650;48.840;9.162;2023-05-27T13:36:55;25.40;69.10
35541;DHT22;21650;48.840;9.162;2023-05-27T13:39:21;25.10;70.00
35541;DHT22;21650;48.840;9.162;2023-05-27T13:41:47;25.20;69.60
35541;DHT22;21650;48.840;9.162;2023-05-27T13:44:13;25.40;69.90
35541;DHT22;21650;48.840;9.162;2023-05-27T13:46:38;25.20;68.60
35541;DHT22;21650;48.840;9.162;2023-05-27T13:49:04;25.30;69.00
35541;DHT22;21650;48.840;9.162;2023-05-27T13:51:30;25.20;69.10
35541;DHT22;21650;48.840;9.162;2023-05-27T13:53:56;25.80;70.20
35541;DHT22;21650;48.840;9.162;2023-05-27T13:56:22;25.80;68.60
35541;DHT22;21650;48.840;9.162;2023-05-27T13:58:49;25.40;68.60
35541;DHT22;21650;48.840;9.162;2023-05-27T14:01:15;25.60;70.00
35541;DHT22;21650;48.840;9.162;2023-05-27T14:03:41;25.60;68.10
35541;DHT22;21650;48.840;9.162;2023-05-27T14:06:07;25.70;69.30
35541;DHT22;21650;48.840;9.162;2023-05-27T14:08:33;25.70;67.10
35541;DHT22;21650;48.840;9.162;2023-05-27T14:10:58;25.90;67.80
35541;DHT22;21650;48.840;9.162;2023-05-27T14:13:24;25.60;66.50
35541;DHT22;21650;48.840;9.162;2023-05-27T14:15:50;25.60;65.30
35541;DHT22;21650;48.840;9.162;2023-05-27T14:18:16;25.60;65.00
35541;DHT22;21650;48.840;9.162;2023-05-27T14:20:43;26.10;64.70
35541;DHT22;21650;48.840;9.162;2023-05-27T14:23:08;25.90;65.10
35541;DHT22;21650;48.840;9.162;2023-05-27T14:25:36;25.50;63.90
35541;DHT22;21650;48.840;9.162;2023-05-27T14:28:02;25.70;64.70
35541;DHT22;21650;48.840;9.162;2023-05-27T14:30:29;26.20;63.90
35541;DHT22;21650;48.840;9.162;2023-05-27T14:32:56;25.90;63.00
35541;DHT22;21650;48.840;9.162;2023-05-27T14:35:27;25.60;61.00
35541;DHT22;21650;48.840;9.162;2023-05-27T14:37:52;25.70;64.00
35541;DHT22;21650;48.840;9.162;2023-05-27T14:40:18;25.80;63.40
35541;DHT22;21650;48.840;9.162;2023-05-27T14:42:44;25.70;60.50
35541;DHT22;21650;48.840;9.162;2023-05-27T14:45:10;25.20;59.60
35541;DHT22;21650;48.840;9.162;2023-05-27T14:47:36;25.50;61.00
35541;DHT22;21650;48.840;9.162;2023-05-27T14:50:01;25.70;60.80
35541;DHT22;21650;48.840;9.162;2023-05-27T14:52:27;26.10;61.60
35541;DHT22;21650;48.840;9.162;2023-05-27T14:54:53;25.90;59.40
35541;DHT22;21650;48.840;9.162;2023-05-27T14:57:18;25.80;58.10
35541;DHT22;21650;48.840;9.162;2023-05-27T14:59:44;25.70;59.10
35541;DHT22;21650;48.840;9.162;2023-05-27T15:02:10;25.70;58.60
35541;DHT22;21650;48.840;9.162;2023-05-27T15:04:35;25.60;58.80
35541;DHT22;21650;48.840;9.162;2023-05-27T15:07:01;25.70;59.60
35541;DHT22;21650;48.840;9.162;2023-05-27T15:09:26;25.70;58.90
35541;DHT22;21650;48.840;9.162;2023-05-27T15:11:52;26.20;58.90
35541;DHT22;21650;48.840;9.162;2023-05-27T15:14:18;26.00;58.20
35541;DHT22;21650;48.840;9.162;2023-05-27T15:16:43;25.90;59.70
35541;DHT22;21650;48.840;9.162;2023-05-27T15:19:09;26.10;59.10
35541;DHT22;21650;48.840;9.162;2023-05-27T15:21:35;26.10;57.80
35541;DHT22;21650;48.840;9.162;2023-05-27T15:24:01;26.00;56.90
35541;DHT22;21650;48.840;9.162;2023-05-27T15:26:26;26.00;57.80
35541;DHT22;21650;48.840;9.162;2023-05-27T15:28:52;26.00;57.50
35541;DHT22;21650;48.840;9.162;2023-05-27T15:31:18;26.30;55.80